sensor_id;sensor_type;location;lat;lon;timestamp;P1;durP1;ratioP1;P2;durP2;ratioP2
60018;SDS011;45870;42.528;26.740;2023-05-07T00:01:35;13.30;;;7.63;;
60018;SDS011;45870;42.528;26.740;2023-05-07T00:04:00;10.32;;;7.53;;
60018;SDS011;45870;42.528;26.740;2023-05-07T00:06:27;13.25;;;7.63;;
60018;SDS011;45870;42.528;26.740;2023-05-07T00:08:54;14.88;;;7.20;;
60018;SDS011;45870;42.528;26.740;2023-05-07T00:11:19;12.52;;;7.20;;
60018;SDS011;45870;42.528;26.740;2023-05-07T00:13:46;11.50;;;7.88;;
60018;SDS011;45870;42.528;26.740;2023-05-07T00:16:12;10.82;;;6.90;;
60018;SDS011;45870;42.528;26.740;2023-05-07T00:18:38;11.30;;;7.78;;
60018;SDS011;45870;42.528;26.740;2023-05-07T00:21:03;14.80;;;7.57;;
60018;SDS011;45870;42.528;26.740;2023-05-07T00:23:29;11.80;;;7.28;;
60018;SDS011;45870;42.528;26.740;2023-05-07T00:25:55;11.05;;;6.78;;
60018;SDS011;45870;42.528;26.740;2023-05-07T00:28:21;12.40;;;7.50;;
60018;SDS011;45870;42.528;26.740;2023-05-07T00:30:47;12.57;;;7.70;;
60018;SDS011;45870;42.528;26.740;2023-05-07T00:33:12;11.02;;;7.78;;
60018;SDS011;45870;42.528;26.740;2023-05-07T00:35:38;11.30;;;7.82;;
60018;SDS011;45870;42.528;26.740;2023-05-07T00:38:04;15.75;;;8.48;;
60018;SDS011;45870;42.528;26.740;2023-05-07T00:40:29;14.38;;;8.00;;
60018;SDS011;45870;42.528;26.740;2023-05-07T00:42:55;10.82;;;8.02;;
60018;SDS011;45870;42.528;26.740;2023-05-07T00:45:24;12.98;;;8.27;;
60018;SDS011;45870;42.528;26.740;2023-05-07T00:47:55;11.00;;;7.88;;
60018;SDS011;45870;42.528;26.740;2023-05-07T00:50:23;11.20;;;7.15;;
60018;SDS011;45870;42.528;26.740;2023-05-07T00:52:49;11.02;;;8.25;;
60018;SDS011;45870;42.528;26.740;2023-05-07T00:55:15;12.52;;;6.90;;
60018;SDS011;45870;42.528;26.740;2023-05-07T00:57:41;12.00;;;8.02;;
60018;SDS011;45870;42.528;26.740;2023-05-07T01:00:07;15.02;;;7.80;;
60018;SDS011;45870;42.528;26.740;2023-05-07T01:02:35;13.52;;;7.20;;
60018;SDS011;45870;42.528;26.740;2023-05-07T01:05:01;10.50;;;7.57;;
60018;SDS011;45870;42.528;26.740;2023-05-07T01:07:31;11.35;;;7.40;;
60018;SDS011;45870;42.528;26.740;2023-05-07T01:09:58;10.70;;;7.82;;
60018;SDS011;45870;42.528;26.740;2023-05-07T01:12:24;15.15;;;8.05;;
60018;SDS011;45870;42.528;26.740;2023-05-07T01:14:50;11.73;;;7.57;;
60018;SDS011;45870;42.528;26.740;2023-05-07T01:17:17;12.75;;;8.70;;
60018;SDS011;45870;42.528;26.740;2023-05-07T01:19:42;13.60;;;7.75;;
60018;SDS011;45870;42.528;26.740;2023-05-07T01:22:09;10.55;;;6.85;;
60018;SDS011;45870;42.528;26.740;2023-05-07T01:24:37;10.32;;;6.60;;
60018;SDS011;45870;42.528;26.740;2023-05-07T01:27:03;12.05;;;7.30;;
60018;SDS011;45870;42.528;26.740;2023-05-07T01:29:29;12.18;;;7.65;;
60018;SDS011;45870;42.528;26.740;2023-05-07T01:31:58;10.65;;;7.25;;
60018;SDS011;45870;42.528;26.740;2023-05-07T01:34:25;9.70;;;7.07;;
60018;SDS011;45870;42.528;26.740;2023-05-07T01:36:54;12.32;;;7.90;;
60018;SDS011;45870;42.528;26.740;2023-05-07T01:39:26;12.23;;;8.13;;
60018;SDS011;45870;42.528;26.740;2023-05-07T01:41:56;11.40;;;8.05;;
60018;SDS011;45870;42.528;26.740;2023-05-07T01:44:24;14.63;;;7.38;;
60018;SDS011;45870;42.528;26.740;2023-05-07T01:46:51;11.60;;;8.20;;
60018;SDS011;45870;42.528;26.740;2023-05-07T01:49:17;14.02;;;8.20;;
60018;SDS011;45870;42.528;26.740;2023-05-07T01:51:43;12.32;;;7.90;;
60018;SDS011;45870;42.528;26.740;2023-05-07T01:54:09;9.57;;;7.28;;
60018;SDS011;45870;42.528;26.740;2023-05-07T01:56:35;16.23;;;7.50;;
60018;SDS011;45870;42.528;26.740;2023-05-07T01:59:01;13.38;;;7.85;;
60018;SDS011;45870;42.528;26.740;2023-05-07T02:01:27;13.95;;;8.30;;
60018;SDS011;45870;42.528;26.740;2023-05-07T02:03:53;10.23;;;7.35;;
60018;SDS011;45870;42.528;26.740;2023-05-07T02:06:19;10.57;;;7.32;;
60018;SDS011;45870;42.528;26.740;2023-05-07T02:08:45;10.27;;;7.60;;
60018;SDS011;45870;42.528;26.740;2023-05-07T02:11:11;11.90;;;6.93;;
60018;SDS011;45870;42.528;26.740;2023-05-07T02:13:36;12.80;;;6.90;;
60018;SDS011;45870;42.528;26.740;2023-05-07T02:16:02;8.93;;;6.18;;
60018;SDS011;45870;42.528;26.740;2023-05-07T02:18:28;14.93;;;6.60;;
60018;SDS011;45870;42.528;26.740;2023-05-07T02:20:54;10.13;;;6.57;;
60018;SDS011;45870;42.528;26.740;2023-05-07T02:23:20;8.40;;;6.60;;
60018;SDS011;45870;42.528;26.740;2023-05-07T02:25:45;8.48;;;6.00;;
60018;SDS011;45870;42.528;26.740;2023-05-07T02:28:11;14.07;;;6.32;;
60018;SDS011;45870;42.528;26.740;2023-05-07T02:30:37;9.18;;;5.82;;
60018;SDS011;45870;42.528;26.740;2023-05-07T02:33:03;9.95;;;5.40;;
60018;SDS011;45870;42.528;26.740;2023-05-07T02:35:29;7.88;;;5.78;;
60018;SDS011;45870;42.528;26.740;2023-05-07T02:37:55;10.10;;;5.30;;
60018;SDS011;45870;42.528;26.740;2023-05-07T02:40:20;7.55;;;5.20;;
60018;SDS011;45870;42.528;26.740;2023-05-07T02:42:46;8.85;;;5.28;;
60018;SDS011;45870;42.528;26.740;2023-05-07T02:45:12;10.48;;;6.25;;
60018;SDS011;45870;42.528;26.740;2023-05-07T02:47:37;9.18;;;6.05;;
60018;SDS011;45870;42.528;26.740;2023-05-07T02:50:03;8.60;;;5.25;;
60018;SDS011;45870;42.528;26.740;2023-05-07T02:52:31;7.78;;;4.97;;
60018;SDS011;45870;42.528;26.740;2023-05-07T02:54:56;7.35;;;5.13;;
60018;SDS011;45870;42.528;26.740;2023-05-07T02:57:22;8.20;;;5.32;;
60018;SDS011;45870;42.528;26.740;2023-05-07T02:59:48;8.65;;;5.00;;
60018;SDS011;45870;42.528;26.740;2023-05-07T03:02:13;7.72;;;4.95;;
60018;SDS011;45870;42.528;26.740;2023-05-07T03:04:39;7.78;;;5.28;;
60018;SDS011;45870;42.528;26.740;2023-05-07T03:07:05;7.55;;;5.45;;
60018;SDS011;45870;42.528;26.740;2023-05-07T03:09:30;8.05;;;5.40;;
60018;SDS011;45870;42.528;26.740;2023-05-07T03:11:56;6.15;;;4.85;;
60018;SDS011;45870;42.528;26.740;2023-05-07T03:14:22;7.95;;;5.47;;
60018;SDS011;45870;42.528;26.740;2023-05-07T03:16:48;8.25;;;5.30;;
60018;SDS011;45870;42.528;26.740;2023-05-07T03:19:15;7.95;;;4.72;;
60018;SDS011;45870;42.528;26.740;2023-05-07T03:21:40;10.20;;;4.72;;
60018;SDS011;45870;42.528;26.740;2023-05-07T03:24:06;9.43;;;4.60;;
60018;SDS011;45870;42.528;26.740;2023-05-07T03:26:32;7.55;;;3.85;;
60018;SDS011;45870;42.528;26.740;2023-05-07T03:28:57;5.53;;;3.67;;
60018;SDS011;45870;42.528;26.740;2023-05-07T03:31:23;4.07;;;3.00;;
60018;SDS011;45870;42.528;26.740;2023-05-07T03:33:52;4.65;;;3.08;;
60018;SDS011;45870;42.528;26.740;2023-05-07T03:36:19;5.55;;;2.38;;
60018;SDS011;45870;42.528;26.740;2023-05-07T03:38:46;4.90;;;2.88;;
60018;SDS011;45870;42.528;26.740;2023-05-07T03:41:11;4.78;;;2.78;;
60018;SDS011;45870;42.528;26.740;2023-05-07T03:43:37;4.32;;;2.35;;
60018;SDS011;45870;42.528;26.740;2023-05-07T03:46:03;6.40;;;2.63;;
60018;SDS011;45870;42.528;26.740;2023-05-07T03:48:28;7.57;;;2.55;;
60018;SDS011;45870;42.528;26.740;2023-05-07T03:50:55;5.70;;;2.40;;
60018;SDS011;45870;42.528;26.740;2023-05-07T03:53:22;3.42;;;2.45;;
60018;SDS011;45870;42.528;26.740;2023-05-07T03:55:48;6.95;;;2.17;;
60018;SDS011;45870;42.528;26.740;2023-05-07T03:58:14;5.50;;;2.10;;
60018;SDS011;45870;42.528;26.740;2023-05-07T04:00:41;3.08;;;2.20;;
60018;SDS011;45870;42.528;26.740;2023-05-07T04:03:07;3.53;;;2.05;;
60018;SDS011;45870;42.528;26.740;2023-05-07T04:05:32;5.63;;;2.15;;
60018;SDS011;45870;42.528;26.740;2023-05-07T04:07:58;3.90;;;1.80;;
60018;SDS011;45870;42.528;26.740;2023-05-07T04:10:24;4.05;;;1.98;;
60018;SDS011;45870;42.528;26.740;2023-05-07T04:12:50;7.60;;;2.30;;
60018;SDS011;45870;42.528;26.740;2023-05-07T04:15:16;6.78;;;2.33;;
60018;SDS011;45870;42.528;26.740;2023-05-07T04:17:42;7.97;;;2.53;;
60018;SDS011;45870;42.528;26.740;2023-05-07T04:20:13;3.50;;;2.20;;
60018;SDS011;45870;42.528;26.740;2023-05-07T04:22:40;2.97;;;2.10;;
60018;SDS011;45870;42.528;26.740;2023-05-07T04:25:06;7.25;;;2.30;;
60018;SDS011;45870;42.528;26.740;2023-05-07T04:27:34;5.28;;;1.95;;
60018;SDS011;45870;42.528;26.740;2023-05-07T04:30:00;6.68;;;2.10;;
60018;SDS011;45870;42.528;26.740;2023-05-07T04:32:27;3.58;;;1.80;;
60018;SDS011;45870;42.528;26.740;2023-05-07T04:34:57;3.97;;;1.80;;
60018;SDS011;45870;42.528;26.740;2023-05-07T04:37:22;6.50;;;1.90;;
60018;SDS011;45870;42.528;26.740;2023-05-07T04:39:48;4.65;;;1.90;;
60018;SDS011;45870;42.528;26.740;2023-05-07T04:42:14;3.63;;;2.00;;
60018;SDS011;45870;42.528;26.740;2023-05-07T04:44:40;4.82;;;2.05;;
60018;SDS011;45870;42.528;26.740;2023-05-07T04:47:06;6.53;;;2.00;;
60018;SDS011;45870;42.528;26.740;2023-05-07T04:49:32;6.18;;;1.85;;
60018;SDS011;45870;42.528;26.740;2023-05-07T04:51:57;5.43;;;1.90;;
60018;SDS011;45870;42.528;26.740;2023-05-07T04:54:23;4.10;;;1.77;;
60018;SDS011;45870;42.528;26.740;2023-05-07T04:56:48;4.18;;;1.70;;
60018;SDS011;45870;42.528;26.740;2023-05-07T04:59:14;6.38;;;2.05;;
60018;SDS011;45870;42.528;26.740;2023-05-07T05:01:40;3.97;;;1.45;;
60018;SDS011;45870;42.528;26.740;2023-05-07T05:04:05;4.18;;;1.60;;
60018;SDS011;45870;42.528;26.740;2023-05-07T05:06:31;5.22;;;1.70;;
60018;SDS011;45870;42.528;26.740;2023-05-07T05:08:57;7.35;;;1.70;;
60018;SDS011;45870;42.528;26.740;2023-05-07T05:11:22;8.68;;;2.05;;
60018;SDS011;45870;42.528;26.740;2023-05-07T05:13:48;4.25;;;1.70;;
60018;SDS011;45870;42.528;26.740;2023-05-07T05:16:14;4.93;;;1.90;;
60018;SDS011;45870;42.528;26.740;2023-05-07T05:18:40;4.40;;;1.95;;
60018;SDS011;45870;42.528;26.740;2023-05-07T05:21:06;3.17;;;1.80;;
60018;SDS011;45870;42.528;26.740;2023-05-07T05:23:32;3.05;;;1.75;;
60018;SDS011;45870;42.528;26.740;2023-05-07T05:25:57;3.63;;;1.80;;
60018;SDS011;45870;42.528;26.740;2023-05-07T05:28:23;3.30;;;1.75;;
60018;SDS011;45870;42.528;26.740;2023-05-07T05:30:49;7.65;;;2.17;;
60018;SDS011;45870;42.528;26.740;2023-05-07T05:33:15;4.97;;;1.98;;
60018;SDS011;45870;42.528;26.740;2023-05-07T05:35:41;2.70;;;1.92;;
60018;SDS011;45870;42.528;26.740;2023-05-07T05:38:07;2.97;;;1.92;;
60018;SDS011;45870;42.528;26.740;2023-05-07T05:40:33;3.30;;;1.90;;
60018;SDS011;45870;42.528;26.740;2023-05-07T05:42:59;2.88;;;1.75;;
60018;SDS011;45870;42.528;26.740;2023-05-07T05:45:25;3.10;;;1.77;;
60018;SDS011;45870;42.528;26.740;2023-05-07T05:47:50;4.07;;;1.90;;
60018;SDS011;45870;42.528;26.740;2023-05-07T05:50:16;3.70;;;2.17;;
60018;SDS011;45870;42.528;26.740;2023-05-07T05:52:42;3.78;;;1.83;;
60018;SDS011;45870;42.528;26.740;2023-05-07T05:55:08;5.50;;;1.80;;
60018;SDS011;45870;42.528;26.740;2023-05-07T05:57:34;4.47;;;1.80;;
60018;SDS011;45870;42.528;26.740;2023-05-07T06:00:00;6.07;;;1.80;;
60018;SDS011;45870;42.528;26.740;2023-05-07T06:02:26;4.38;;;2.25;;
60018;SDS011;45870;42.528;26.740;2023-05-07T06:04:52;4.45;;;1.70;;
60018;SDS011;45870;42.528;26.740;2023-05-07T06:07:17;6.78;;;1.88;;
60018;SDS011;45870;42.528;26.740;2023-05-07T06:09:43;4.38;;;2.00;;
60018;SDS011;45870;42.528;26.740;2023-05-07T06:12:09;3.25;;;1.70;;
60018;SDS011;45870;42.528;26.740;2023-05-07T06:14:34;2.92;;;1.85;;
60018;SDS011;45870;42.528;26.740;2023-05-07T06:17:00;4.93;;;1.80;;
60018;SDS011;45870;42.528;26.740;2023-05-07T06:19:26;5.78;;;2.05;;
60018;SDS011;45870;42.528;26.740;2023-05-07T06:21:53;3.72;;;1.67;;
60018;SDS011;45870;42.528;26.740;2023-05-07T06:24:21;4.57;;;2.25;;
60018;SDS011;45870;42.528;26.740;2023-05-07T06:26:47;2.58;;;1.50;;
60018;SDS011;45870;42.528;26.740;2023-05-07T06:29:13;4.70;;;1.90;;
60018;SDS011;45870;42.528;26.740;2023-05-07T06:31:38;3.17;;;1.77;;
60018;SDS011;45870;42.528;26.740;2023-05-07T06:34:04;3.95;;;1.90;;
60018;SDS011;45870;42.528;26.740;2023-05-07T06:36:30;4.20;;;2.10;;
60018;SDS011;45870;42.528;26.740;2023-05-07T06:38:55;3.38;;;1.90;;
60018;SDS011;45870;42.528;26.740;2023-05-07T06:41:21;6.72;;;1.75;;
60018;SDS011;45870;42.528;26.740;2023-05-07T06:43:47;3.63;;;2.00;;
60018;SDS011;45870;42.528;26.740;2023-05-07T06:46:12;5.43;;;1.70;;
60018;SDS011;45870;42.528;26.740;2023-05-07T06:48:38;3.13;;;1.70;;
60018;SDS011;45870;42.528;26.740;2023-05-07T06:51:03;3.70;;;1.73;;
60018;SDS011;45870;42.528;26.740;2023-05-07T06:53:29;6.05;;;2.00;;
60018;SDS011;45870;42.528;26.740;2023-05-07T06:55:56;3.97;;;2.03;;
60018;SDS011;45870;42.528;26.740;2023-05-07T06:58:22;2.90;;;1.50;;
60018;SDS011;45870;42.528;26.740;2023-05-07T07:00:48;4.32;;;1.60;;
60018;SDS011;45870;42.528;26.740;2023-05-07T07:03:13;4.35;;;2.00;;
60018;SDS011;45870;42.528;26.740;2023-05-07T07:05:42;4.40;;;1.73;;
60018;SDS011;45870;42.528;26.740;2023-05-07T07:08:09;3.63;;;1.60;;
60018;SDS011;45870;42.528;26.740;2023-05-07T07:10:35;2.72;;;1.60;;
60018;SDS011;45870;42.528;26.740;2023-05-07T07:13:00;4.05;;;1.70;;
60018;SDS011;45870;42.528;26.740;2023-05-07T07:15:26;1.95;;;1.40;;
60018;SDS011;45870;42.528;26.740;2023-05-07T07:17:52;5.28;;;1.20;;
60018;SDS011;45870;42.528;26.740;2023-05-07T07:20:17;2.53;;;1.60;;
60018;SDS011;45870;42.528;26.740;2023-05-07T07:22:43;6.75;;;2.08;;
60018;SDS011;45870;42.528;26.740;2023-05-07T07:25:09;2.55;;;1.48;;
60018;SDS011;45870;42.528;26.740;2023-05-07T07:27:36;3.78;;;1.67;;
60018;SDS011;45870;42.528;26.740;2023-05-07T07:30:02;4.55;;;1.70;;
60018;SDS011;45870;42.528;26.740;2023-05-07T07:32:27;5.00;;;1.80;;
60018;SDS011;45870;42.528;26.740;2023-05-07T07:34:53;3.28;;;1.42;;
60018;SDS011;45870;42.528;26.740;2023-05-07T07:37:19;5.20;;;1.77;;
60018;SDS011;45870;42.528;26.740;2023-05-07T07:39:45;4.45;;;1.50;;
60018;SDS011;45870;42.528;26.740;2023-05-07T07:42:10;4.22;;;2.00;;
60018;SDS011;45870;42.528;26.740;2023-05-07T07:44:36;5.97;;;1.80;;
60018;SDS011;45870;42.528;26.740;2023-05-07T07:47:02;3.38;;;1.85;;
60018;SDS011;45870;42.528;26.740;2023-05-07T07:49:27;2.95;;;1.38;;
60018;SDS011;45870;42.528;26.740;2023-05-07T07:51:53;5.55;;;1.70;;
60018;SDS011;45870;42.528;26.740;2023-05-07T07:54:18;6.15;;;1.48;;
60018;SDS011;45870;42.528;26.740;2023-05-07T07:56:44;1.60;;;1.25;;
60018;SDS011;45870;42.528;26.740;2023-05-07T07:59:10;5.68;;;1.50;;
60018;SDS011;45870;42.528;26.740;2023-05-07T08:01:35;3.40;;;1.73;;
60018;SDS011;45870;42.528;26.740;2023-05-07T08:04:01;5.10;;;1.60;;
60018;SDS011;45870;42.528;26.740;2023-05-07T08:06:28;1.98;;;1.33;;
60018;SDS011;45870;42.528;26.740;2023-05-07T08:08:54;1.98;;;1.40;;
60018;SDS011;45870;42.528;26.740;2023-05-07T08:11:20;3.78;;;1.65;;
60018;SDS011;45870;42.528;26.740;2023-05-07T08:13:46;5.90;;;1.50;;
60018;SDS011;45870;42.528;26.740;2023-05-07T08:16:12;6.55;;;1.80;;
60018;SDS011;45870;42.528;26.740;2023-05-07T08:18:38;6.20;;;1.50;;
60018;SDS011;45870;42.528;26.740;2023-05-07T08:21:04;3.33;;;1.40;;
60018;SDS011;45870;42.528;26.740;2023-05-07T08:23:30;4.43;;;1.70;;
60018;SDS011;45870;42.528;26.740;2023-05-07T08:25:56;3.30;;;1.70;;
60018;SDS011;45870;42.528;26.740;2023-05-07T08:28:21;2.63;;;1.50;;
60018;SDS011;45870;42.528;26.740;2023-05-07T08:30:49;3.80;;;1.67;;
60018;SDS011;45870;42.528;26.740;2023-05-07T08:33:15;3.08;;;1.50;;
60018;SDS011;45870;42.528;26.740;2023-05-07T08:35:41;5.13;;;1.50;;
60018;SDS011;45870;42.528;26.740;2023-05-07T08:38:06;3.17;;;1.42;;
60018;SDS011;45870;42.528;26.740;2023-05-07T08:40:34;4.78;;;1.60;;
60018;SDS011;45870;42.528;26.740;2023-05-07T08:43:03;3.40;;;1.35;;
60018;SDS011;45870;42.528;26.740;2023-05-07T08:45:31;4.07;;;1.42;;
60018;SDS011;45870;42.528;26.740;2023-05-07T08:47:59;4.07;;;1.63;;
60018;SDS011;45870;42.528;26.740;2023-05-07T08:50:28;3.85;;;1.50;;
60018;SDS011;45870;42.528;26.740;2023-05-07T08:52:54;3.58;;;1.38;;
60018;SDS011;45870;42.528;26.740;2023-05-07T08:55:22;2.97;;;1.20;;
60018;SDS011;45870;42.528;26.740;2023-05-07T08:57:48;3.13;;;1.50;;
60018;SDS011;45870;42.528;26.740;2023-05-07T09:00:15;2.08;;;1.48;;
60018;SDS011;45870;42.528;26.740;2023-05-07T09:02:40;5.30;;;1.40;;
60018;SDS011;45870;42.528;26.740;2023-05-07T09:05:06;2.70;;;1.30;;
60018;SDS011;45870;42.528;26.740;2023-05-07T09:07:33;3.70;;;1.50;;
60018;SDS011;45870;42.528;26.740;2023-05-07T09:10:01;2.83;;;0.98;;
60018;SDS011;45870;42.528;26.740;2023-05-07T09:12:30;4.00;;;1.20;;
60018;SDS011;45870;42.528;26.740;2023-05-07T09:14:56;2.53;;;1.40;;
60018;SDS011;45870;42.528;26.740;2023-05-07T09:17:22;5.18;;;1.73;;
60018;SDS011;45870;42.528;26.740;2023-05-07T09:19:48;4.25;;;1.55;;
60018;SDS011;45870;42.528;26.740;2023-05-07T09:22:13;2.47;;;1.55;;
60018;SDS011;45870;42.528;26.740;2023-05-07T09:24:39;2.20;;;1.23;;
60018;SDS011;45870;42.528;26.740;2023-05-07T09:27:05;5.15;;;1.40;;
60018;SDS011;45870;42.528;26.740;2023-05-07T09:29:31;3.42;;;1.40;;
60018;SDS011;45870;42.528;26.740;2023-05-07T09:32:01;2.55;;;1.60;;
60018;SDS011;45870;42.528;26.740;2023-05-07T09:34:28;6.30;;;1.67;;
60018;SDS011;45870;42.528;26.740;2023-05-07T09:37:00;4.00;;;1.40;;
60018;SDS011;45870;42.528;26.740;2023-05-07T09:42:09;5.93;;;1.60;;
60018;SDS011;45870;42.528;26.740;2023-05-07T09:44:36;2.30;;;1.40;;
60018;SDS011;45870;42.528;26.740;2023-05-07T09:47:04;1.98;;;1.40;;
60018;SDS011;45870;42.528;26.740;2023-05-07T09:49:33;6.22;;;1.67;;
60018;SDS011;45870;42.528;26.740;2023-05-07T09:52:02;2.53;;;1.23;;
60018;SDS011;45870;42.528;26.740;2023-05-07T09:54:31;2.17;;;1.40;;
60018;SDS011;45870;42.528;26.740;2023-05-07T09:56:59;3.25;;;1.38;;
60018;SDS011;45870;42.528;26.740;2023-05-07T09:59:28;5.57;;;1.55;;
60018;SDS011;45870;42.528;26.740;2023-05-07T10:02:00;3.63;;;1.40;;
60018;SDS011;45870;42.528;26.740;2023-05-07T10:04:26;2.80;;;1.60;;
60018;SDS011;45870;42.528;26.740;2023-05-07T10:06:53;3.83;;;1.40;;
60018;SDS011;45870;42.528;26.740;2023-05-07T10:09:20;2.38;;;1.40;;
60018;SDS011;45870;42.528;26.740;2023-05-07T10:11:48;2.65;;;1.50;;
60018;SDS011;45870;42.528;26.740;2023-05-07T10:14:14;5.72;;;1.27;;
60018;SDS011;45870;42.528;26.740;2023-05-07T10:16:40;3.30;;;1.30;;
60018;SDS011;45870;42.528;26.740;2023-05-07T10:19:09;3.15;;;1.27;;
60018;SDS011;45870;42.528;26.740;2023-05-07T10:21:36;5.07;;;1.67;;
60018;SDS011;45870;42.528;26.740;2023-05-07T10:24:04;3.13;;;1.50;;
60018;SDS011;45870;42.528;26.740;2023-05-07T10:26:39;1.90;;;1.40;;
60018;SDS011;45870;42.528;26.740;2023-05-07T10:29:15;2.40;;;1.30;;
60018;SDS011;45870;42.528;26.740;2023-05-07T10:32:13;3.60;;;1.40;;
60018;SDS011;45870;42.528;26.740;2023-05-07T10:34:53;3.50;;;1.63;;
60018;SDS011;45870;42.528;26.740;2023-05-07T10:37:21;3.05;;;1.33;;
60018;SDS011;45870;42.528;26.740;2023-05-07T10:39:49;5.50;;;1.50;;
60018;SDS011;45870;42.528;26.740;2023-05-07T10:42:14;2.53;;;1.30;;
60018;SDS011;45870;42.528;26.740;2023-05-07T10:44:40;2.78;;;1.52;;
60018;SDS011;45870;42.528;26.740;2023-05-07T10:47:07;3.00;;;1.40;;
60018;SDS011;45870;42.528;26.740;2023-05-07T10:50:19;2.95;;;1.45;;
60018;SDS011;45870;42.528;26.740;2023-05-07T10:52:31;2.60;;;1.50;;
60018;SDS011;45870;42.528;26.740;2023-05-07T10:57:42;3.20;;;1.50;;
60018;SDS011;45870;42.528;26.740;2023-05-07T11:05:29;4.00;;;1.40;;
60018;SDS011;45870;42.528;26.740;2023-05-07T11:07:57;2.83;;;1.30;;
60018;SDS011;45870;42.528;26.740;2023-05-07T11:10:32;4.15;;;1.40;;
60018;SDS011;45870;42.528;26.740;2023-05-07T11:13:41;2.75;;;1.20;;
60018;SDS011;45870;42.528;26.740;2023-05-07T11:16:22;1.98;;;1.30;;
60018;SDS011;45870;42.528;26.740;2023-05-07T11:18:50;4.22;;;1.60;;
60018;SDS011;45870;42.528;26.740;2023-05-07T11:24:04;3.20;;;1.40;;
60018;SDS011;45870;42.528;26.740;2023-05-07T11:26:31;6.07;;;1.35;;
60018;SDS011;45870;42.528;26.740;2023-05-07T11:29:16;1.63;;;1.10;;
60018;SDS011;45870;42.528;26.740;2023-05-07T11:31:43;3.75;;;1.48;;
60018;SDS011;45870;42.528;26.740;2023-05-07T11:34:09;2.83;;;1.40;;
60018;SDS011;45870;42.528;26.740;2023-05-07T11:36:37;6.15;;;1.73;;
60018;SDS011;45870;42.528;26.740;2023-05-07T11:39:24;4.55;;;1.20;;
60018;SDS011;45870;42.528;26.740;2023-05-07T11:41:51;2.65;;;1.23;;
60018;SDS011;45870;42.528;26.740;2023-05-07T11:44:17;2.55;;;1.30;;
60018;SDS011;45870;42.528;26.740;2023-05-07T11:46:43;4.88;;;1.25;;
60018;SDS011;45870;42.528;26.740;2023-05-07T11:49:10;2.20;;;1.38;;
60018;SDS011;45870;42.528;26.740;2023-05-07T11:51:35;3.05;;;1.35;;
60018;SDS011;45870;42.528;26.740;2023-05-07T11:54:03;3.10;;;1.25;;
60018;SDS011;45870;42.528;26.740;2023-05-07T11:56:33;2.47;;;1.30;;
60018;SDS011;45870;42.528;26.740;2023-05-07T11:59:00;2.92;;;1.27;;
60018;SDS011;45870;42.528;26.740;2023-05-07T12:01:26;2.88;;;1.48;;
60018;SDS011;45870;42.528;26.740;2023-05-07T12:03:52;3.47;;;1.27;;
60018;SDS011;45870;42.528;26.740;2023-05-07T12:06:17;3.28;;;1.48;;
60018;SDS011;45870;42.528;26.740;2023-05-07T12:08:44;3.92;;;1.30;;
60018;SDS011;45870;42.528;26.740;2023-05-07T12:11:15;3.08;;;1.42;;
60018;SDS011;45870;42.528;26.740;2023-05-07T12:13:47;2.97;;;1.25;;
60018;SDS011;45870;42.528;26.740;2023-05-07T12:16:12;2.28;;;1.30;;
60018;SDS011;45870;42.528;26.740;2023-05-07T12:18:39;3.58;;;1.42;;
60018;SDS011;45870;42.528;26.740;2023-05-07T12:21:05;1.80;;;1.20;;
60018;SDS011;45870;42.528;26.740;2023-05-07T12:23:32;2.53;;;1.50;;
60018;SDS011;45870;42.528;26.740;2023-05-07T12:26:01;2.25;;;1.50;;
60018;SDS011;45870;42.528;26.740;2023-05-07T12:28:28;4.72;;;1.45;;
60018;SDS011;45870;42.528;26.740;2023-05-07T12:30:53;3.33;;;1.20;;
60018;SDS011;45870;42.528;26.740;2023-05-07T12:33:23;2.40;;;1.30;;
60018;SDS011;45870;42.528;26.740;2023-05-07T12:35:50;1.73;;;1.33;;
60018;SDS011;45870;42.528;26.740;2023-05-07T12:38:16;3.08;;;1.20;;
60018;SDS011;45870;42.528;26.740;2023-05-07T12:40:44;2.65;;;1.30;;
60018;SDS011;45870;42.528;26.740;2023-05-07T12:43:23;3.13;;;1.20;;
60018;SDS011;45870;42.528;26.740;2023-05-07T12:45:51;3.08;;;1.50;;
60018;SDS011;45870;42.528;26.740;2023-05-07T12:48:19;4.85;;;1.92;;
60018;SDS011;45870;42.528;26.740;2023-05-07T12:50:49;2.10;;;1.55;;
60018;SDS011;45870;42.528;26.740;2023-05-07T12:53:16;2.60;;;1.63;;
60018;SDS011;45870;42.528;26.740;2023-05-07T12:55:45;4.68;;;1.67;;
60018;SDS011;45870;42.528;26.740;2023-05-07T12:58:20;5.57;;;1.48;;
60018;SDS011;45870;42.528;26.740;2023-05-07T13:00:51;3.40;;;1.35;;
60018;SDS011;45870;42.528;26.740;2023-05-07T13:05:53;3.75;;;1.40;;
60018;SDS011;45870;42.528;26.740;2023-05-07T13:08:27;4.55;;;1.42;;
60018;SDS011;45870;42.528;26.740;2023-05-07T13:10:53;2.53;;;1.60;;
60018;SDS011;45870;42.528;26.740;2023-05-07T13:13:20;5.05;;;1.65;;
60018;SDS011;45870;42.528;26.740;2023-05-07T13:15:47;2.40;;;1.38;;
60018;SDS011;45870;42.528;26.740;2023-05-07T13:18:12;3.08;;;1.70;;
60018;SDS011;45870;42.528;26.740;2023-05-07T13:20:38;4.50;;;1.70;;
60018;SDS011;45870;42.528;26.740;2023-05-07T13:23:04;3.90;;;1.73;;
60018;SDS011;45870;42.528;26.740;2023-05-07T13:25:30;2.53;;;1.50;;
60018;SDS011;45870;42.528;26.740;2023-05-07T13:27:58;4.03;;;1.60;;
60018;SDS011;45870;42.528;26.740;2023-05-07T13:30:24;5.90;;;1.42;;
60018;SDS011;45870;42.528;26.740;2023-05-07T13:32:51;5.18;;;2.08;;
60018;SDS011;45870;42.528;26.740;2023-05-07T13:35:17;6.90;;;1.73;;
60018;SDS011;45870;42.528;26.740;2023-05-07T13:37:43;7.40;;;1.50;;
60018;SDS011;45870;42.528;26.740;2023-05-07T13:40:08;2.22;;;1.30;;
60018;SDS011;45870;42.528;26.740;2023-05-07T13:42:34;4.57;;;1.63;;
60018;SDS011;45870;42.528;26.740;2023-05-07T13:45:00;5.13;;;1.63;;
60018;SDS011;45870;42.528;26.740;2023-05-07T13:47:28;3.08;;;1.60;;
60018;SDS011;45870;42.528;26.740;2023-05-07T13:49:53;4.65;;;1.48;;
60018;SDS011;45870;42.528;26.740;2023-05-07T13:52:19;2.75;;;1.55;;
60018;SDS011;45870;42.528;26.740;2023-05-07T13:54:45;3.72;;;1.58;;
60018;SDS011;45870;42.528;26.740;2023-05-07T13:57:11;2.85;;;1.45;;
60018;SDS011;45870;42.528;26.740;2023-05-07T13:59:36;3.20;;;1.60;;
60018;SDS011;45870;42.528;26.740;2023-05-07T14:02:02;4.68;;;1.75;;
60018;SDS011;45870;42.528;26.740;2023-05-07T14:04:28;5.53;;;1.58;;
60018;SDS011;45870;42.528;26.740;2023-05-07T14:06:53;3.03;;;1.40;;
60018;SDS011;45870;42.528;26.740;2023-05-07T14:09:19;2.60;;;1.50;;
60018;SDS011;45870;42.528;26.740;2023-05-07T14:11:44;2.90;;;1.40;;
60018;SDS011;45870;42.528;26.740;2023-05-07T14:14:12;4.10;;;1.73;;
60018;SDS011;45870;42.528;26.740;2023-05-07T14:16:38;3.05;;;1.58;;
60018;SDS011;45870;42.528;26.740;2023-05-07T14:19:04;2.42;;;1.30;;
60018;SDS011;45870;42.528;26.740;2023-05-07T14:21:29;3.63;;;1.38;;
60018;SDS011;45870;42.528;26.740;2023-05-07T14:23:56;2.80;;;1.45;;
60018;SDS011;45870;42.528;26.740;2023-05-07T14:26:21;2.72;;;1.25;;
60018;SDS011;45870;42.528;26.740;2023-05-07T14:28:48;6.40;;;1.60;;
60018;SDS011;45870;42.528;26.740;2023-05-07T14:31:14;3.38;;;1.80;;
60018;SDS011;45870;42.528;26.740;2023-05-07T14:33:40;5.28;;;1.65;;
60018;SDS011;45870;42.528;26.740;2023-05-07T14:36:06;3.80;;;1.23;;
60018;SDS011;45870;42.528;26.740;2023-05-07T14:38:31;3.95;;;1.65;;
60018;SDS011;45870;42.528;26.740;2023-05-07T14:40:58;4.90;;;1.70;;
60018;SDS011;45870;42.528;26.740;2023-05-07T14:43:23;3.83;;;1.30;;
60018;SDS011;45870;42.528;26.740;2023-05-07T14:45:49;2.15;;;1.40;;
60018;SDS011;45870;42.528;26.740;2023-05-07T14:48:15;3.42;;;1.75;;